sensor_id;sensor_type;location;lat;lon;timestamp;P1;durP1;ratioP1;P2;durP2;ratioP2
72201;SDS011;60105;54.956;73.412;2023-04-08T00:02:40;7.33;;;3.50;;
72201;SDS011;60105;54.956;73.412;2023-04-08T00:05:42;6.40;;;3.08;;
72201;SDS011;60105;54.956;73.412;2023-04-08T00:08:43;4.47;;;3.50;;
72201;SDS011;60105;54.956;73.412;2023-04-08T00:11:45;4.95;;;2.92;;
72201;SDS011;60105;54.956;73.412;2023-04-08T00:14:46;11.13;;;3.70;;
72201;SDS011;60105;54.956;73.412;2023-04-08T00:17:52;6.33;;;3.23;;
72201;SDS011;60105;54.956;73.412;2023-04-08T00:21:38;6.34;;;3.51;;
72201;SDS011;60105;54.956;73.412;2023-04-08T00:24:40;6.63;;;3.45;;
72201;SDS011;60105;54.956;73.412;2023-04-08T00:27:41;6.38;;;3.22;;
72201;SDS011;60105;54.956;73.412;2023-04-08T00:30:43;7.90;;;4.32;;
72201;SDS011;60105;54.956;73.412;2023-04-08T00:33:46;4.83;;;3.07;;
72201;SDS011;60105;54.956;73.412;2023-04-08T00:36:47;4.30;;;3.35;;
72201;SDS011;60105;54.956;73.412;2023-04-08T00:39:53;6.07;;;3.70;;
72201;SDS011;60105;54.956;73.412;2023-04-08T00:42:55;6.40;;;3.67;;
72201;SDS011;60105;54.956;73.412;2023-04-08T00:46:38;6.50;;;3.68;;
72201;SDS011;60105;54.956;73.412;2023-04-08T00:49:50;6.50;;;3.42;;
72201;SDS011;60105;54.956;73.412;2023-04-08T00:52:51;10.85;;;3.67;;
72201;SDS011;60105;54.956;73.412;2023-04-08T00:55:53;11.93;;;3.60;;
72201;SDS011;60105;54.956;73.412;2023-04-08T00:58:54;6.50;;;3.50;;
72201;SDS011;60105;54.956;73.412;2023-04-08T01:05:04;6.90;;;3.90;;
72201;SDS011;60105;54.956;73.412;2023-04-08T01:08:17;8.03;;;4.07;;
72201;SDS011;60105;54.956;73.412;2023-04-08T01:11:19;8.20;;;4.20;;
72201;SDS011;60105;54.956;73.412;2023-04-08T01:14:25;6.22;;;3.95;;
72201;SDS011;60105;54.956;73.412;2023-04-08T01:17:28;6.33;;;3.27;;
72201;SDS011;60105;54.956;73.412;2023-04-08T01:20:32;8.33;;;3.83;;
72201;SDS011;60105;54.956;73.412;2023-04-08T01:23:38;11.50;;;3.67;;
72201;SDS011;60105;54.956;73.412;2023-04-08T01:26:46;6.03;;;4.33;;
72201;SDS011;60105;54.956;73.412;2023-04-08T01:29:48;7.15;;;4.20;;
72201;SDS011;60105;54.956;73.412;2023-04-08T01:32:50;8.83;;;4.33;;
72201;SDS011;60105;54.956;73.412;2023-04-08T01:36:38;10.23;;;4.36;;
72201;SDS011;60105;54.956;73.412;2023-04-08T01:39:41;11.43;;;4.33;;
72201;SDS011;60105;54.956;73.412;2023-04-08T01:42:56;6.37;;;4.10;;
72201;SDS011;60105;54.956;73.412;2023-04-08T01:46:38;6.28;;;4.20;;
72201;SDS011;60105;54.956;73.412;2023-04-08T01:49:42;7.32;;;3.75;;
72201;SDS011;60105;54.956;73.412;2023-04-08T01:52:44;7.97;;;3.33;;
72201;SDS011;60105;54.956;73.412;2023-04-08T01:55:48;13.73;;;4.43;;
72201;SDS011;60105;54.956;73.412;2023-04-08T01:58:54;8.25;;;4.10;;
72201;SDS011;60105;54.956;73.412;2023-04-08T02:02:04;12.27;;;4.10;;
72201;SDS011;60105;54.956;73.412;2023-04-08T02:05:08;10.00;;;3.75;;
72201;SDS011;60105;54.956;73.412;2023-04-08T02:08:15;4.03;;;3.30;;
72201;SDS011;60105;54.956;73.412;2023-04-08T02:11:17;4.07;;;2.83;;
72201;SDS011;60105;54.956;73.412;2023-04-08T02:14:18;5.22;;;3.72;;
72201;SDS011;60105;54.956;73.412;2023-04-08T02:20:37;7.03;;;3.85;;
72201;SDS011;60105;54.956;73.412;2023-04-08T02:23:52;7.40;;;3.83;;
72201;SDS011;60105;54.956;73.412;2023-04-08T02:26:55;7.30;;;3.67;;
72201;SDS011;60105;54.956;73.412;2023-04-08T02:29:58;8.20;;;5.53;;
72201;SDS011;60105;54.956;73.412;2023-04-08T02:33:03;9.73;;;4.47;;
72201;SDS011;60105;54.956;73.412;2023-04-08T02:36:38;5.53;;;3.70;;
72201;SDS011;60105;54.956;73.412;2023-04-08T02:39:41;9.15;;;4.32;;
72201;SDS011;60105;54.956;73.412;2023-04-08T02:42:44;7.93;;;4.97;;
72201;SDS011;60105;54.956;73.412;2023-04-08T02:45:46;9.23;;;4.65;;
72201;SDS011;60105;54.956;73.412;2023-04-08T02:48:50;8.70;;;5.87;;
72201;SDS011;60105;54.956;73.412;2023-04-08T02:51:57;24.88;;;5.50;;
72201;SDS011;60105;54.956;73.412;2023-04-08T02:54:58;7.43;;;4.55;;
72201;SDS011;60105;54.956;73.412;2023-04-08T02:58:09;17.13;;;4.90;;
72201;SDS011;60105;54.956;73.412;2023-04-08T03:01:38;9.00;;;4.72;;
72201;SDS011;60105;54.956;73.412;2023-04-08T03:04:44;10.50;;;5.40;;
72201;SDS011;60105;54.956;73.412;2023-04-08T03:07:45;13.70;;;4.95;;
72201;SDS011;60105;54.956;73.412;2023-04-08T03:10:47;8.18;;;4.55;;
72201;SDS011;60105;54.956;73.412;2023-04-08T03:13:49;10.73;;;4.28;;
72201;SDS011;60105;54.956;73.412;2023-04-08T03:16:51;11.70;;;3.85;;
72201;SDS011;60105;54.956;73.412;2023-04-08T03:19:52;10.23;;;4.80;;
72201;SDS011;60105;54.956;73.412;2023-04-08T03:22:59;10.90;;;4.22;;
72201;SDS011;60105;54.956;73.412;2023-04-08T03:26:38;11.05;;;4.03;;
72201;SDS011;60105;54.956;73.412;2023-04-08T03:29:39;9.20;;;3.75;;
72201;SDS011;60105;54.956;73.412;2023-04-08T03:32:41;5.07;;;3.88;;
72201;SDS011;60105;54.956;73.412;2023-04-08T03:35:42;8.38;;;4.25;;
72201;SDS011;60105;54.956;73.412;2023-04-08T03:38:43;8.37;;;4.00;;
72201;SDS011;60105;54.956;73.412;2023-04-08T03:41:45;8.43;;;3.63;;
72201;SDS011;60105;54.956;73.412;2023-04-08T03:44:46;6.63;;;3.97;;
72201;SDS011;60105;54.956;73.412;2023-04-08T03:47:51;6.47;;;3.50;;
72201;SDS011;60105;54.956;73.412;2023-04-08T03:51:38;9.17;;;3.35;;
72201;SDS011;60105;54.956;73.412;2023-04-08T03:54:39;7.82;;;2.80;;
72201;SDS011;60105;54.956;73.412;2023-04-08T03:57:45;5.50;;;3.22;;
72201;SDS011;60105;54.956;73.412;2023-04-08T04:00:47;5.27;;;3.77;;
72201;SDS011;60105;54.956;73.412;2023-04-08T04:03:48;16.33;;;3.30;;
72201;SDS011;60105;54.956;73.412;2023-04-08T04:06:49;6.87;;;3.73;;
72201;SDS011;60105;54.956;73.412;2023-04-08T04:09:50;4.82;;;3.10;;
72201;SDS011;60105;54.956;73.412;2023-04-08T04:12:53;4.53;;;3.17;;
72201;SDS011;60105;54.956;73.412;2023-04-08T04:16:38;8.80;;;3.56;;
72201;SDS011;60105;54.956;73.412;2023-04-08T04:19:39;6.22;;;3.78;;
72201;SDS011;60105;54.956;73.412;2023-04-08T04:22:45;6.13;;;3.67;;
72201;SDS011;60105;54.956;73.412;2023-04-08T04:25:47;12.48;;;3.45;;
72201;SDS011;60105;54.956;73.412;2023-04-08T04:28:48;5.10;;;3.53;;
72201;SDS011;60105;54.956;73.412;2023-04-08T04:31:55;7.75;;;3.80;;
72201;SDS011;60105;54.956;73.412;2023-04-08T04:34:57;8.27;;;4.23;;
72201;SDS011;60105;54.956;73.412;2023-04-08T04:38:08;5.05;;;3.25;;
72201;SDS011;60105;54.956;73.412;2023-04-08T04:41:13;5.50;;;3.60;;
72201;SDS011;60105;54.956;73.412;2023-04-08T04:44:19;9.53;;;3.40;;
72201;SDS011;60105;54.956;73.412;2023-04-08T04:47:20;6.70;;;3.33;;
72201;SDS011;60105;54.956;73.412;2023-04-08T04:50:22;4.53;;;3.20;;
72201;SDS011;60105;54.956;73.412;2023-04-08T04:53:23;5.75;;;3.85;;
72201;SDS011;60105;54.956;73.412;2023-04-08T04:59:39;6.47;;;3.80;;
72201;SDS011;60105;54.956;73.412;2023-04-08T05:02:40;8.95;;;3.35;;
72201;SDS011;60105;54.956;73.412;2023-04-08T05:05:42;9.35;;;3.15;;
72201;SDS011;60105;54.956;73.412;2023-04-08T05:08:43;4.15;;;2.80;;
72201;SDS011;60105;54.956;73.412;2023-04-08T05:11:44;5.38;;;3.10;;
72201;SDS011;60105;54.956;73.412;2023-04-08T05:14:45;8.17;;;3.60;;
72201;SDS011;60105;54.956;73.412;2023-04-08T05:17:47;11.27;;;3.67;;
72201;SDS011;60105;54.956;73.412;2023-04-08T05:21:38;6.51;;;3.44;;
72201;SDS011;60105;54.956;73.412;2023-04-08T05:24:39;6.38;;;3.30;;
72201;SDS011;60105;54.956;73.412;2023-04-08T05:27:40;5.73;;;3.00;;
72201;SDS011;60105;54.956;73.412;2023-04-08T05:30:49;5.07;;;3.90;;
72201;SDS011;60105;54.956;73.412;2023-04-08T05:33:51;5.47;;;3.20;;
72201;SDS011;60105;54.956;73.412;2023-04-08T05:37:02;8.13;;;3.72;;
72201;SDS011;60105;54.956;73.412;2023-04-08T05:40:04;5.53;;;3.38;;
72201;SDS011;60105;54.956;73.412;2023-04-08T05:43:06;6.50;;;3.80;;
72201;SDS011;60105;54.956;73.412;2023-04-08T05:46:38;14.90;;;3.75;;
72201;SDS011;60105;54.956;73.412;2023-04-08T05:49:39;6.00;;;3.20;;
72201;SDS011;60105;54.956;73.412;2023-04-08T05:52:41;5.53;;;3.63;;
72201;SDS011;60105;54.956;73.412;2023-04-08T05:55:44;6.55;;;3.13;;
72201;SDS011;60105;54.956;73.412;2023-04-08T05:58:45;5.90;;;2.93;;
72201;SDS011;60105;54.956;73.412;2023-04-08T06:01:47;3.95;;;3.35;;
72201;SDS011;60105;54.956;73.412;2023-04-08T06:04:48;5.07;;;3.10;;
72201;SDS011;60105;54.956;73.412;2023-04-08T06:07:49;4.83;;;2.57;;
72201;SDS011;60105;54.956;73.412;2023-04-08T06:10:51;6.07;;;3.15;;
72201;SDS011;60105;54.956;73.412;2023-04-08T06:13:52;6.47;;;2.13;;
72201;SDS011;60105;54.956;73.412;2023-04-08T06:16:53;9.63;;;3.63;;
72201;SDS011;60105;54.956;73.412;2023-04-08T06:19:56;7.00;;;3.33;;
72201;SDS011;60105;54.956;73.412;2023-04-08T06:23:02;7.30;;;2.97;;
72201;SDS011;60105;54.956;73.412;2023-04-08T06:26:37;5.15;;;3.63;;
72201;SDS011;60105;54.956;73.412;2023-04-08T06:29:38;5.35;;;2.78;;
72201;SDS011;60105;54.956;73.412;2023-04-08T06:32:39;4.80;;;2.87;;
72201;SDS011;60105;54.956;73.412;2023-04-08T06:35:40;6.20;;;4.25;;
72201;SDS011;60105;54.956;73.412;2023-04-08T06:38:42;6.85;;;3.38;;
72201;SDS011;60105;54.956;73.412;2023-04-08T06:41:43;8.80;;;3.20;;
72201;SDS011;60105;54.956;73.412;2023-04-08T06:45:14;8.50;;;3.33;;
72201;SDS011;60105;54.956;73.412;2023-04-08T06:48:15;5.33;;;3.03;;
72201;SDS011;60105;54.956;73.412;2023-04-08T06:54:41;4.93;;;3.30;;
72201;SDS011;60105;54.956;73.412;2023-04-08T06:57:43;4.23;;;3.20;;
72201;SDS011;60105;54.956;73.412;2023-04-08T07:00:44;6.32;;;3.50;;
72201;SDS011;60105;54.956;73.412;2023-04-08T07:03:45;10.87;;;3.37;;
72201;SDS011;60105;54.956;73.412;2023-04-08T07:06:51;5.55;;;3.15;;
72201;SDS011;60105;54.956;73.412;2023-04-08T07:10:02;4.87;;;3.20;;
72201;SDS011;60105;54.956;73.412;2023-04-08T07:13:04;6.22;;;3.38;;
72201;SDS011;60105;54.956;73.412;2023-04-08T07:16:38;10.05;;;4.32;;
72201;SDS011;60105;54.956;73.412;2023-04-08T07:19:39;6.35;;;3.72;;
72201;SDS011;60105;54.956;73.412;2023-04-08T07:22:40;10.33;;;3.67;;
72201;SDS011;60105;54.956;73.412;2023-04-08T07:25:42;5.07;;;4.03;;
72201;SDS011;60105;54.956;73.412;2023-04-08T07:28:43;8.93;;;3.83;;
72201;SDS011;60105;54.956;73.412;2023-04-08T07:31:45;5.22;;;3.00;;
72201;SDS011;60105;54.956;73.412;2023-04-08T07:34:47;6.57;;;4.45;;
72201;SDS011;60105;54.956;73.412;2023-04-08T07:37:49;8.10;;;3.63;;
72201;SDS011;60105;54.956;73.412;2023-04-08T07:40:53;14.15;;;4.32;;
72201;SDS011;60105;54.956;73.412;2023-04-08T07:43:54;12.50;;;4.03;;
72201;SDS011;60105;54.956;73.412;2023-04-08T07:46:56;6.03;;;3.05;;
72201;SDS011;60105;54.956;73.412;2023-04-08T07:49:57;5.33;;;3.63;;
72201;SDS011;60105;54.956;73.412;2023-04-08T07:52:58;7.78;;;3.30;;
72201;SDS011;60105;54.956;73.412;2023-04-08T07:56:38;4.80;;;3.25;;
72201;SDS011;60105;54.956;73.412;2023-04-08T07:59:45;5.47;;;3.40;;
72201;SDS011;60105;54.956;73.412;2023-04-08T08:02:56;7.47;;;3.37;;
72201;SDS011;60105;54.956;73.412;2023-04-08T08:06:38;8.54;;;3.34;;
72201;SDS011;60105;54.956;73.412;2023-04-08T08:09:49;7.78;;;3.80;;
72201;SDS011;60105;54.956;73.412;2023-04-08T08:12:50;6.35;;;2.90;;
72201;SDS011;60105;54.956;73.412;2023-04-08T08:16:38;8.32;;;3.50;;
72201;SDS011;60105;54.956;73.412;2023-04-08T08:19:39;7.60;;;3.87;;
72201;SDS011;60105;54.956;73.412;2023-04-08T08:22:41;5.80;;;3.28;;
72201;SDS011;60105;54.956;73.412;2023-04-08T08:25:42;6.20;;;3.65;;
72201;SDS011;60105;54.956;73.412;2023-04-08T08:28:43;8.20;;;3.97;;
72201;SDS011;60105;54.956;73.412;2023-04-08T08:31:45;5.63;;;2.77;;
72201;SDS011;60105;54.956;73.412;2023-04-08T08:34:58;9.90;;;3.30;;
72201;SDS011;60105;54.956;73.412;2023-04-08T08:37:59;5.53;;;2.93;;
72201;SDS011;60105;54.956;73.412;2023-04-08T08:41:06;5.88;;;3.78;;
72201;SDS011;60105;54.956;73.412;2023-04-08T08:44:07;7.47;;;3.70;;
72201;SDS011;60105;54.956;73.412;2023-04-08T08:49:37;4.80;;;3.30;;
72201;SDS011;60105;54.956;73.412;2023-04-08T08:52:38;6.22;;;3.13;;
72201;SDS011;60105;54.956;73.412;2023-04-08T08:55:52;6.47;;;3.30;;
72201;SDS011;60105;54.956;73.412;2023-04-08T08:58:53;9.85;;;4.18;;
72201;SDS011;60105;54.956;73.412;2023-04-08T09:02:06;3.35;;;2.60;;
72201;SDS011;60105;54.956;73.412;2023-04-08T09:05:26;7.38;;;3.70;;
72201;SDS011;60105;54.956;73.412;2023-04-08T09:08:34;6.40;;;3.35;;
72201;SDS011;60105;54.956;73.412;2023-04-08T09:15:07;7.53;;;3.37;;
72201;SDS011;60105;54.956;73.412;2023-04-08T09:18:21;7.43;;;3.33;;
72201;SDS011;60105;54.956;73.412;2023-04-08T09:22:03;8.38;;;3.78;;
72201;SDS011;60105;54.956;73.412;2023-04-08T09:28:28;6.30;;;3.27;;
72201;SDS011;60105;54.956;73.412;2023-04-08T09:32:02;5.90;;;3.85;;
72201;SDS011;60105;54.956;73.412;2023-04-08T09:35:04;5.25;;;3.60;;
72201;SDS011;60105;54.956;73.412;2023-04-08T09:38:05;6.78;;;3.55;;
72201;SDS011;60105;54.956;73.412;2023-04-08T09:41:07;11.15;;;3.78;;
72201;SDS011;60105;54.956;73.412;2023-04-08T09:44:09;9.50;;;3.72;;
72201;SDS011;60105;54.956;73.412;2023-04-08T09:47:17;7.27;;;3.40;;
72201;SDS011;60105;54.956;73.412;2023-04-08T09:50:22;3.90;;;3.10;;
72201;SDS011;60105;54.956;73.412;2023-04-08T09:53:32;5.63;;;3.08;;
72201;SDS011;60105;54.956;73.412;2023-04-08T09:56:40;6.45;;;3.35;;
72201;SDS011;60105;54.956;73.412;2023-04-08T10:00:07;10.52;;;4.07;;
72201;SDS011;60105;54.956;73.412;2023-04-08T10:03:34;4.57;;;3.30;;
72201;SDS011;60105;54.956;73.412;2023-04-08T10:10:05;9.95;;;3.75;;
72201;SDS011;60105;54.956;73.412;2023-04-08T10:13:07;7.28;;;3.35;;
72201;SDS011;60105;54.956;73.412;2023-04-08T10:19:36;4.53;;;3.50;;
72201;SDS011;60105;54.956;73.412;2023-04-08T10:22:52;9.17;;;3.97;;
72201;SDS011;60105;54.956;73.412;2023-04-08T10:25:55;6.80;;;3.45;;
72201;SDS011;60105;54.956;73.412;2023-04-08T10:32:26;7.95;;;5.18;;
72201;SDS011;60105;54.956;73.412;2023-04-08T10:38:55;8.80;;;4.38;;
72201;SDS011;60105;54.956;73.412;2023-04-08T10:42:07;3.30;;;2.10;;
72201;SDS011;60105;54.956;73.412;2023-04-08T10:45:08;6.60;;;4.68;;
72201;SDS011;60105;54.956;73.412;2023-04-08T10:48:16;7.47;;;4.07;;
72201;SDS011;60105;54.956;73.412;2023-04-08T10:52:06;7.68;;;4.38;;
72201;SDS011;60105;54.956;73.412;2023-04-08T10:55:08;7.07;;;3.70;;
72201;SDS011;60105;54.956;73.412;2023-04-08T10:58:15;5.28;;;3.85;;
72201;SDS011;60105;54.956;73.412;2023-04-08T11:02:02;8.68;;;4.14;;
72201;SDS011;60105;54.956;73.412;2023-04-08T11:05:14;9.47;;;3.90;;
72201;SDS011;60105;54.956;73.412;2023-04-08T11:08:15;6.93;;;3.93;;
72201;SDS011;60105;54.956;73.412;2023-04-08T11:12:02;8.77;;;3.61;;
72201;SDS011;60105;54.956;73.412;2023-04-08T11:15:04;9.40;;;4.20;;
72201;SDS011;60105;54.956;73.412;2023-04-08T11:18:06;7.90;;;3.43;;
72201;SDS011;60105;54.956;73.412;2023-04-08T11:21:14;9.32;;;3.72;;
72201;SDS011;60105;54.956;73.412;2023-04-08T11:24:22;8.57;;;4.13;;
72201;SDS011;60105;54.956;73.412;2023-04-08T11:27:23;14.88;;;3.40;;
72201;SDS011;60105;54.956;73.412;2023-04-08T11:30:25;5.30;;;2.87;;
72201;SDS011;60105;54.956;73.412;2023-04-08T11:33:29;6.53;;;3.53;;
72201;SDS011;60105;54.956;73.412;2023-04-08T11:37:02;11.27;;;3.80;;
72201;SDS011;60105;54.956;73.412;2023-04-08T11:40:10;7.47;;;4.03;;
72201;SDS011;60105;54.956;73.412;2023-04-08T11:43:13;8.25;;;4.70;;
72201;SDS011;60105;54.956;73.412;2023-04-08T11:46:15;7.97;;;3.78;;
72201;SDS011;60105;54.956;73.412;2023-04-08T11:49:16;6.63;;;3.30;;
72201;SDS011;60105;54.956;73.412;2023-04-08T11:52:22;6.40;;;3.07;;
72201;SDS011;60105;54.956;73.412;2023-04-08T11:55:44;7.95;;;4.30;;
72201;SDS011;60105;54.956;73.412;2023-04-08T11:58:56;5.32;;;3.17;;
72201;SDS011;60105;54.956;73.412;2023-04-08T12:05:04;6.85;;;3.75;;
72201;SDS011;60105;54.956;73.412;2023-04-08T12:08:06;4.90;;;3.50;;
72201;SDS011;60105;54.956;73.412;2023-04-08T12:11:07;6.00;;;3.78;;
72201;SDS011;60105;54.956;73.412;2023-04-08T12:14:18;6.70;;;4.30;;
72201;SDS011;60105;54.956;73.412;2023-04-08T12:17:26;6.10;;;3.50;;
72201;SDS011;60105;54.956;73.412;2023-04-08T12:20:32;7.03;;;3.87;;
72201;SDS011;60105;54.956;73.412;2023-04-08T12:23:33;8.63;;;4.30;;
72201;SDS011;60105;54.956;73.412;2023-04-08T12:26:35;6.17;;;3.54;;
72201;SDS011;60105;54.956;73.412;2023-04-08T12:29:46;7.72;;;4.13;;
72201;SDS011;60105;54.956;73.412;2023-04-08T12:32:49;16.38;;;5.25;;
72201;SDS011;60105;54.956;73.412;2023-04-08T12:35:50;8.98;;;4.82;;
72201;SDS011;60105;54.956;73.412;2023-04-08T12:38:52;9.30;;;3.78;;
72201;SDS011;60105;54.956;73.412;2023-04-08T12:45:09;5.93;;;3.42;;
72201;SDS011;60105;54.956;73.412;2023-04-08T12:48:13;8.40;;;4.47;;
72201;SDS011;60105;54.956;73.412;2023-04-08T12:51:15;7.72;;;3.60;;
72201;SDS011;60105;54.956;73.412;2023-04-08T12:54:16;11.37;;;4.10;;
72201;SDS011;60105;54.956;73.412;2023-04-08T12:57:17;8.17;;;3.63;;
72201;SDS011;60105;54.956;73.412;2023-04-08T13:00:18;6.32;;;3.58;;
72201;SDS011;60105;54.956;73.412;2023-04-08T13:03:20;6.33;;;3.17;;
72201;SDS011;60105;54.956;73.412;2023-04-08T13:07:02;5.60;;;3.10;;
72201;SDS011;60105;54.956;73.412;2023-04-08T13:10:04;6.53;;;3.95;;
72201;SDS011;60105;54.956;73.412;2023-04-08T13:13:06;6.90;;;3.43;;
72201;SDS011;60105;54.956;73.412;2023-04-08T13:17:03;5.58;;;3.28;;
72201;SDS011;60105;54.956;73.412;2023-04-08T13:20:04;9.00;;;3.80;;
72201;SDS011;60105;54.956;73.412;2023-04-08T13:23:11;13.35;;;3.72;;
72201;SDS011;60105;54.956;73.412;2023-04-08T13:26:14;6.65;;;3.30;;
72201;SDS011;60105;54.956;73.412;2023-04-08T13:29:26;8.13;;;4.30;;
72201;SDS011;60105;54.956;73.412;2023-04-08T13:32:31;9.83;;;3.90;;
72201;SDS011;60105;54.956;73.412;2023-04-08T13:35:32;7.30;;;3.80;;
72201;SDS011;60105;54.956;73.412;2023-04-08T13:38:33;20.27;;;4.23;;
72201;SDS011;60105;54.956;73.412;2023-04-08T13:45:13;8.68;;;4.45;;
72201;SDS011;60105;54.956;73.412;2023-04-08T13:48:20;7.83;;;4.17;;
72201;SDS011;60105;54.956;73.412;2023-04-08T13:52:02;7.73;;;4.18;;
72201;SDS011;60105;54.956;73.412;2023-04-08T13:55:04;9.80;;;4.75;;
72201;SDS011;60105;54.956;73.412;2023-04-08T13:58:06;9.80;;;4.80;;
72201;SDS011;60105;54.956;73.412;2023-04-08T14:01:07;8.43;;;4.55;;
72201;SDS011;60105;54.956;73.412;2023-04-08T14:04:08;12.45;;;4.57;;
72201;SDS011;60105;54.956;73.412;2023-04-08T14:07:10;9.87;;;4.00;;
72201;SDS011;60105;54.956;73.412;2023-04-08T14:10:12;13.05;;;5.32;;
72201;SDS011;60105;54.956;73.412;2023-04-08T14:13:15;13.00;;;6.60;;
72201;SDS011;60105;54.956;73.412;2023-04-08T14:16:16;22.65;;;7.75;;
72201;SDS011;60105;54.956;73.412;2023-04-08T14:19:18;15.33;;;6.20;;
72201;SDS011;60105;54.956;73.412;2023-04-08T14:22:19;18.40;;;7.07;;
72201;SDS011;60105;54.956;73.412;2023-04-08T14:25:20;15.77;;;7.47;;
72201;SDS011;60105;54.956;73.412;2023-04-08T14:28:21;18.13;;;5.75;;
72201;SDS011;60105;54.956;73.412;2023-04-08T14:32:02;15.80;;;5.68;;
72201;SDS011;60105;54.956;73.412;2023-04-08T14:35:03;12.05;;;6.38;;
72201;SDS011;60105;54.956;73.412;2023-04-08T14:38:05;13.40;;;6.80;;
72201;SDS011;60105;54.956;73.412;2023-04-08T14:41:06;10.25;;;6.57;;
72201;SDS011;60105;54.956;73.412;2023-04-08T14:44:17;13.47;;;6.57;;
72201;SDS011;60105;54.956;73.412;2023-04-08T14:47:19;13.00;;;5.83;;
72201;SDS011;60105;54.956;73.412;2023-04-08T14:50:20;15.48;;;6.45;;
72201;SDS011;60105;54.956;73.412;2023-04-08T14:53:22;10.27;;;5.30;;
72201;SDS011;60105;54.956;73.412;2023-04-08T14:56:33;16.40;;;6.05;;
72201;SDS011;60105;54.956;73.412;2023-04-08T14:59:35;18.30;;;7.43;;
72201;SDS011;60105;54.956;73.412;2023-04-08T15:02:37;14.10;;;6.47;;
72201;SDS011;60105;54.956;73.412;2023-04-08T15:05:38;17.88;;;7.75;;
72201;SDS011;60105;54.956;73.412;2023-04-08T15:08:39;16.47;;;9.10;;
72201;SDS011;60105;54.956;73.412;2023-04-08T15:15:05;15.02;;;7.20;;
72201;SDS011;60105;54.956;73.412;2023-04-08T15:18:06;17.57;;;7.70;;
72201;SDS011;60105;54.956;73.412;2023-04-08T15:21:08;16.93;;;7.93;;
72201;SDS011;60105;54.956;73.412;2023-04-08T15:24:09;17.25;;;6.90;;
72201;SDS011;60105;54.956;73.412;2023-04-08T15:27:15;15.85;;;6.18;;
72201;SDS011;60105;54.956;73.412;2023-04-08T15:30:17;14.73;;;6.57;;
72201;SDS011;60105;54.956;73.412;2023-04-08T15:33:23;16.00;;;6.77;;
72201;SDS011;60105;54.956;73.412;2023-04-08T15:37:02;15.25;;;6.20;;
72201;SDS011;60105;54.956;73.412;2023-04-08T15:40:03;18.70;;;7.47;;
72201;SDS011;60105;54.956;73.412;2023-04-08T15:43:05;13.80;;;6.22;;
72201;SDS011;60105;54.956;73.412;2023-04-08T15:46:09;12.43;;;5.70;;
72201;SDS011;60105;54.956;73.412;2023-04-08T15:49:11;14.33;;;6.50;;
72201;SDS011;60105;54.956;73.412;2023-04-08T15:52:12;19.57;;;6.77;;
72201;SDS011;60105;54.956;73.412;2023-04-08T15:55:18;18.40;;;6.18;;
72201;SDS011;60105;54.956;73.412;2023-04-08T15:58:24;12.30;;;5.45;;
72201;SDS011;60105;54.956;73.412;2023-04-08T16:02:02;11.98;;;5.88;;
72201;SDS011;60105;54.956;73.412;2023-04-08T16:05:04;13.52;;;5.95;;
72201;SDS011;60105;54.956;73.412;2023-04-08T16:08:05;11.50;;;5.07;;
72201;SDS011;60105;54.956;73.412;2023-04-08T16:11:07;11.90;;;5.07;;
72201;SDS011;60105;54.956;73.412;2023-04-08T16:14:08;10.43;;;4.40;;
72201;SDS011;60105;54.956;73.412;2023-04-08T16:17:20;11.97;;;5.03;;
72201;SDS011;60105;54.956;73.412;2023-04-08T16:20:22;12.30;;;5.05;;
72201;SDS011;60105;54.956;73.412;2023-04-08T16:23:23;9.80;;;5.30;;
72201;SDS011;60105;54.956;73.412;2023-04-08T16:26:31;12.95;;;5.00;;
72201;SDS011;60105;54.956;73.412;2023-04-08T16:29:32;11.20;;;5.70;;
72201;SDS011;60105;54.956;73.412;2023-04-08T16:32:38;11.77;;;5.38;;
72201;SDS011;60105;54.956;73.412;2023-04-08T16:35:41;10.40;;;4.80;;
72201;SDS011;60105;54.956;73.412;2023-04-08T16:38:42;9.52;;;4.50;;
72201;SDS011;60105;54.956;73.412;2023-04-08T16:45:03;12.63;;;5.18;;
72201;SDS011;60105;54.956;73.412;2023-04-08T16:48:05;10.07;;;4.57;;
72201;SDS011;60105;54.956;73.412;2023-04-08T16:51:07;16.75;;;5.60;;
72201;SDS011;60105;54.956;73.412;2023-04-08T16:54:08;9.90;;;5.80;;
72201;SDS011;60105;54.956;73.412;2023-04-08T16:57:19;9.67;;;4.73;;
72201;SDS011;60105;54.956;73.412;2023-04-08T17:00:20;9.48;;;5.15;;
72201;SDS011;60105;54.956;73.412;2023-04-08T17:03:28;16.03;;;5.33;;
72201;SDS011;60105;54.956;73.412;2023-04-08T17:07:02;8.27;;;3.97;;
72201;SDS011;60105;54.956;73.412;2023-04-08T17:10:13;8.95;;;4.55;;
72201;SDS011;60105;54.956;73.412;2023-04-08T17:13:25;6.65;;;4.03;;
72201;SDS011;60105;54.956;73.412;2023-04-08T17:17:02;11.80;;;4.53;;
72201;SDS011;60105;54.956;73.412;2023-04-08T17:20:03;11.70;;;4.80;;
72201;SDS011;60105;54.956;73.412;2023-04-08T17:23:05;7.35;;;4.10;;
72201;SDS011;60105;54.956;73.412;2023-04-08T17:26:11;17.58;;;4.38;;
72201;SDS011;60105;54.956;73.412;2023-04-08T17:29:12;11.43;;;4.77;;
72201;SDS011;60105;54.956;73.412;2023-04-08T17:32:14;9.15;;;4.25;;
72201;SDS011;60105;54.956;73.412;2023-04-08T17:35:15;13.45;;;4.20;;
72201;SDS011;60105;54.956;73.412;2023-04-08T17:38:16;7.07;;;3.90;;
72201;SDS011;60105;54.956;73.412;2023-04-08T17:42:02;7.82;;;4.20;;
72201;SDS011;60105;54.956;73.412;2023-04-08T17:45:08;9.20;;;4.17;;
72201;SDS011;60105;54.956;73.412;2023-04-08T17:48:10;9.75;;;3.92;;
72201;SDS011;60105;54.956;73.412;2023-04-08T17:51:11;9.55;;;4.10;;
72201;SDS011;60105;54.956;73.412;2023-04-08T17:54:22;6.20;;;3.83;;
72201;SDS011;60105;54.956;73.412;2023-04-08T17:57:24;7.10;;;3.95;;
72201;SDS011;60105;54.956;73.412;2023-04-08T18:00:26;8.47;;;4.20;;
72201;SDS011;60105;54.956;73.412;2023-04-08T18:03:27;8.32;;;3.92;;
72201;SDS011;60105;54.956;73.412;2023-04-08T18:07:02;10.20;;;3.88;;
72201;SDS011;60105;54.956;73.412;2023-04-08T18:10:04;5.18;;;3.45;;
72201;SDS011;60105;54.956;73.412;2023-04-08T18:13:06;8.27;;;3.50;;
72201;SDS011;60105;54.956;73.412;2023-04-08T18:16:14;6.55;;;3.58;;
72201;SDS011;60105;54.956;73.412;2023-04-08T18:19:16;6.53;;;3.63;;
72201;SDS011;60105;54.956;73.412;2023-04-08T18:22:18;5.25;;;3.70;;
72201;SDS011;60105;54.956;73.412;2023-04-08T18:25:30;7.23;;;3.80;;
72201;SDS011;60105;54.956;73.412;2023-04-08T18:28:37;13.35;;;3.40;;
72201;SDS011;60105;54.956;73.412;2023-04-08T18:35:03;6.22;;;4.03;;
72201;SDS011;60105;54.956;73.412;2023-04-08T18:38:05;6.10;;;3.40;;
72201;SDS011;60105;54.956;73.412;2023-04-08T18:41:07;7.45;;;3.45;;
72201;SDS011;60105;54.956;73.412;2023-04-08T18:44:08;7.90;;;4.40;;
72201;SDS011;60105;54.956;73.412;2023-04-08T18:47:09;8.10;;;3.47;;
72201;SDS011;60105;54.956;73.412;2023-04-08T18:50:10;5.18;;;3.47;;
72201;SDS011;60105;54.956;73.412;2023-04-08T18:53:15;6.78;;;3.22;;
72201;SDS011;60105;54.956;73.412;2023-04-08T18:56:17;7.10;;;3.43;;
72201;SDS011;60105;54.956;73.412;2023-04-08T18:59:19;9.13;;;3.50;;
72201;SDS011;60105;54.956;73.412;2023-04-08T19:02:20;7.07;;;4.00;;
72201;SDS011;60105;54.956;73.412;2023-04-08T19:05:32;6.70;;;4.22;;
72201;SDS011;60105;54.956;73.412;2023-04-08T19:08:40;5.73;;;3.93;;
72201;SDS011;60105;54.956;73.412;2023-04-08T19:15:13;8.73;;;3.72;;
72201;SDS011;60105;54.956;73.412;2023-04-08T19:18:15;6.18;;;3.00;;
72201;SDS011;60105;54.956;73.412;2023-04-08T19:21:16;6.00;;;3.80;;
72201;SDS011;60105;54.956;73.412;2023-04-08T19:24:18;5.77;;;3.43;;
72201;SDS011;60105;54.956;73.412;2023-04-08T19:27:20;7.00;;;3.00;;